Time;durP1;ratioP1;P1;durP2;ratioP2;P2;SDS_P1;SDS_P2;PMS_P1;PMS_P2;Temp;Humidity;BMP_temperature;BMP_pressure;BME280_temperature;BME280_humidity;BME280_pressure;Samples;Min_cycle;Max_cycle;Signal;HPM_P1;HPM_P2
2022/11/26 00:01:27;;;;;;;7.47;3.10;;;;;;;4.92;87.15;101686.75;5136310;27;20138;-75
2022/11/26 00:04:30;;;;;;;;;;;;;;;4.84;87.16;101699.75;5124428;27;20080;-75
2022/11/26 00:07:34;;;;;;;9.75;4.03;;;;;;;4.97;86.61;101692.72;5123700;27;19935;-75
2022/11/26 00:10:37;;;;;;;7.93;4.03;;;;;;;5.04;86.14;101700.44;5136292;27;20095;-74
2022/11/26 00:13:40;;;;;;;8.38;3.08;;;;;;;4.85;86.98;101707.53;5135235;27;20131;-75
2022/11/26 00:16:44;;;;;;;;;;;;;;;5.03;86.56;101706.47;5136437;27;20096;-74
2022/11/26 00:19:49;;;;;;;11.80;3.80;;;;;;;4.90;87.33;101715.25;5136421;27;19918;-75
2022/11/26 00:22:57;;;;;;;10.52;3.75;;;;;;;4.88;87.36;101727.34;5136101;27;20066;-75
2022/11/26 00:26:02;;;;;;;8.68;3.90;;;;;;;4.74;89.00;101724.06;5123497;27;20147;-75
2022/11/26 00:29:09;;;;;;;7.38;3.53;;;;;;;4.83;88.34;101730.00;5135935;27;20128;-75
2022/11/26 00:32:17;;;;;;;10.05;3.38;;;;;;;4.73;88.68;101733.56;5135746;27;20109;-75
2022/11/26 00:35:22;;;;;;;9.20;3.60;;;;;;;4.75;88.78;101726.63;5135646;27;20085;-75
2022/11/26 00:38:26;;;;;;;11.70;2.83;;;;;;;4.85;88.64;101730.88;5135149;27;20042;-75
2022/11/26 00:41:34;;;;;;;21.42;2.88;;;;;;;4.81;88.55;101731.75;5135573;27;20122;-75
2022/11/26 00:44:37;;;;;;;12.20;2.72;;;;;;;4.97;88.31;101736.78;5135762;27;20061;-75
2022/11/26 00:47:40;;;;;;;;;;;;;;;4.97;88.26;101741.97;5136025;27;20408;-75
2022/11/26 00:50:48;;;;;;;16.83;4.67;;;;;;;4.77;89.23;101747.34;5135606;27;20288;-75
2022/11/26 00:53:59;;;;;;;41.90;4.93;;;;;;;4.62;90.46;101766.44;5135654;27;20081;-75
2022/11/26 00:57:02;;;;;;;16.77;4.05;;;;;;;4.67;91.14;101754.34;5122920;27;20085;-75
2022/11/26 01:00:19;;;;;;;30.92;4.65;;;;;;;4.70;92.24;101761.22;5135207;27;20108;-75
2022/11/26 01:03:23;;;;;;;27.08;4.00;;;;;;;4.86;91.16;101771.44;5135243;27;20087;-75
2022/11/26 01:06:37;;;;;;;33.22;4.05;;;;;;;4.89;90.67;101773.16;5134909;27;20054;-75
2022/11/26 01:09:48;;;;;;;31.55;3.63;;;;;;;4.97;90.50;101778.25;5122335;27;20416;-76
2022/11/26 01:12:52;;;;;;;21.17;4.28;;;;;;;4.81;91.62;101780.97;5134722;27;20577;-75
2022/11/26 01:15:57;;;;;;;26.80;4.50;;;;;;;4.63;91.75;101800.13;5134968;27;20070;-76
2022/11/26 01:19:01;;;;;;;28.70;3.75;;;;;;;4.57;92.30;101795.00;5134050;27;20050;-75
2022/11/26 01:22:05;;;;;;;14.43;3.22;;;;;;;4.68;92.00;101812.19;5134959;27;20115;-74
2022/11/26 01:25:08;;;;;;;16.65;3.63;;;;;;;4.56;91.83;101813.13;5134781;27;20095;-73
2022/11/26 01:28:13;;;;;;;;;;;;;;;4.52;90.87;101816.63;5135128;27;20054;-73
2022/11/26 01:31:20;;;;;;;4.82;2.38;;;;;;;4.54;89.35;101822.66;5134511;27;19961;-75
2022/11/26 01:34:23;;;;;;;7.82;3.30;;;;;;;4.60;89.17;101826.06;5134764;27;20050;-73
2022/11/26 01:37:27;;;;;;;;;;;;;;;4.53;89.87;101828.69;5134648;27;20046;-73
2022/11/26 01:40:49;;;;;;;15.80;3.17;;;;;;;4.64;89.76;101832.09;5134735;27;20275;-73
2022/11/26 01:43:56;;;;;;;15.60;3.60;;;;;;;4.71;89.19;101838.94;5134271;27;20042;-74
2022/11/26 01:47:01;;;;;;;37.42;3.72;;;;;;;4.58;89.87;101838.16;5134310;27;20050;-73
2022/11/26 01:50:32;;;;;;;31.20;3.13;;;;;;;4.38;90.87;101835.69;5134055;27;20088;-73
2022/11/26 01:53:59;;;;;;;26.27;3.55;;;;;;;4.34;92.03;101844.34;5133370;27;20045;-73
2022/11/26 01:57:17;;;;;;;23.80;3.38;;;;;;;4.49;91.73;101847.72;5134186;27;20412;-73
2022/11/26 02:00:20;;;;;;;24.02;3.55;;;;;;;4.56;91.34;101850.28;5134282;27;20042;-73
2022/11/26 02:03:26;;;;;;;;;;;;;;;4.63;90.31;101856.28;5134524;27;20046;-73
2022/11/26 02:06:32;;;;;;;13.15;3.63;;;;;;;4.55;90.57;101863.22;5133963;27;19960;-73
2022/11/26 02:09:35;;;;;;;16.67;3.30;;;;;;;4.47;90.22;101860.69;5134140;27;20085;-74
2022/11/26 02:12:40;;;;;;;14.30;4.72;;;;;;;4.46;89.72;101858.09;5133605;27;20038;-74
2022/11/26 02:16:30;;;;;;;15.88;3.47;;;;;;;4.22;89.97;101865.13;5133628;27;20045;-73
2022/11/26 02:20:11;;;;;;;23.92;2.83;;;;;;;4.08;91.37;101875.50;5116501;27;20046;-74
2022/11/26 02:23:33;;;;;;;19.67;3.10;;;;;;;4.18;91.10;101878.97;5133646;27;20046;-74
2022/11/26 02:26:59;;;;;;;21.08;3.13;;;;;;;4.16;90.79;101886.72;5133234;27;20050;-73
2022/11/26 02:30:06;;;;;;;12.50;2.55;;;;;;;4.09;90.43;101889.34;5132810;27;20042;-73
2022/11/26 02:33:20;;;;;;;7.43;3.13;;;;;;;4.22;90.07;101884.97;5133326;27;20576;-73
2022/11/26 02:36:31;;;;;;;9.90;2.70;;;;;;;4.30;90.10;101884.06;5133255;27;20071;-73
2022/11/26 02:39:34;;;;;;;14.82;2.80;;;;;;;4.32;89.42;101887.50;5133165;27;20042;-73
2022/11/26 02:42:38;;;;;;;;;;;;;;;4.26;90.02;101884.94;5133764;27;20124;-73
2022/11/26 02:45:49;;;;;;;19.00;2.73;;;;;;;4.16;90.46;101894.47;5133245;27;19919;-73
2022/11/26 02:48:54;;;;;;;13.25;2.67;;;;;;;4.05;90.65;101890.19;5133104;27;20134;-73
2022/11/26 02:52:00;;;;;;;7.70;2.40;;;;;;;4.02;90.84;101897.97;5133078;27;20564;-73
2022/11/26 02:55:06;;;;;;;11.75;2.67;;;;;;;3.94;91.00;101891.09;5133121;27;20581;-73
2022/11/26 02:58:10;;;;;;;28.95;2.25;;;;;;;3.96;90.59;101893.69;5133060;27;20114;-73
2022/11/26 03:01:27;;;;;;;49.28;3.25;;;;;;;3.83;91.10;101897.16;5133293;27;20050;-73
2022/11/26 03:04:39;;;;;;;4.63;1.67;;;;;;;3.90;90.93;101902.34;5132980;27;20045;-73
2022/11/26 03:07:45;;;;;;;7.25;1.90;;;;;;;4.09;89.89;101902.28;5132744;27;20502;-73
2022/11/26 03:10:48;;;;;;;10.27;2.97;;;;;;;4.16;90.20;101888.44;5132710;27;20065;-73
2022/11/26 03:13:53;;;;;;;;;;;;;;;4.16;89.90;101891.03;5133042;27;20116;-72
2022/11/26 03:16:56;;;;;;;19.58;2.15;;;;;;;4.33;88.98;101898.72;5132891;28;19919;-73
2022/11/26 03:20:00;;;;;;;;;;;;;;;4.46;87.60;101887.44;5133482;28;20541;-73
2022/11/26 03:23:03;;;;;;;13.00;2.08;;;;;;;4.34;87.43;101880.59;5132760;28;19918;-73
2022/11/26 03:26:06;;;;;;;;;;;;;;;4.32;87.86;101879.75;5133298;28;20042;-73
2022/11/26 03:29:10;;;;;;;18.25;2.05;;;;;;;4.20;88.78;101883.25;5135991;27;20503;-73
2022/11/26 03:32:13;;;;;;;17.45;2.40;;;;;;;3.81;89.82;101884.25;5136868;27;20073;-74
2022/11/26 03:35:19;;;;;;;18.55;2.25;;;;;;;3.78;90.59;101884.25;5136786;27;20092;-74
2022/11/26 03:38:22;;;;;;;35.97;3.10;;;;;;;3.68;90.47;101888.59;5135732;27;20091;-74
2022/11/26 03:41:26;;;;;;;22.27;2.50;;;;;;;3.70;90.56;101891.16;5136708;27;20046;-74
2022/11/26 03:44:29;;;;;;;16.90;2.50;;;;;;;3.64;90.66;101892.06;5136970;27;20511;-74
2022/11/26 03:47:32;;;;;;;;;;;;;;;3.79;90.76;101891.13;5137043;27;20042;-74
2022/11/26 03:50:36;;;;;;;7.85;1.92;;;;;;;3.94;90.02;101890.25;5136382;27;19956;-74
2022/11/26 03:53:39;;;;;;;;;;;;;;;3.83;89.64;101889.41;5136924;27;20046;-74
2022/11/26 03:56:43;;;;;;;;;;;;;;;3.83;90.05;101890.28;5136711;27;19921;-74
2022/11/26 03:59:47;;;;;;;20.33;2.40;;;;;;;3.98;89.31;101891.94;5136263;27;19962;-76
2022/11/26 04:02:50;;;;;;;6.05;2.35;;;;;;;4.09;88.79;101890.19;5136547;27;20054;-72
2022/11/26 04:05:53;;;;;;;;;;;;;;;4.00;88.73;101894.56;5136728;27;20526;-72
2022/11/26 04:08:56;;;;;;;12.15;2.38;;;;;;;3.87;89.07;101888.56;5135842;27;19933;-72
2022/11/26 04:12:00;;;;;;;15.20;2.30;;;;;;;3.87;90.23;101893.72;5135784;27;20089;-72
2022/11/26 04:15:04;;;;;;;7.68;1.98;;;;;;;3.90;89.40;101897.16;5135844;27;20096;-72
2022/11/26 04:18:07;;;;;;;40.13;2.45;;;;;;;3.45;89.80;101911.91;5136124;27;20519;-72
2022/11/26 04:21:10;;;;;;;15.20;2.20;;;;;;;3.31;89.78;101913.63;5136056;27;20045;-72
2022/11/26 04:24:14;;;;;;;15.65;2.10;;;;;;;3.33;90.79;101913.63;5123300;27;20038;-72
2022/11/26 04:27:17;;;;;;;50.88;3.53;;;;;;;3.16;93.11;101919.66;5135895;27;20074;-72
2022/11/26 04:30:20;;;;;;;;;;;;;;;3.20;92.62;101929.13;5136211;27;20096;-73
2022/11/26 04:33:25;;;;;;;7.97;2.15;;;;;;;3.36;92.25;101926.56;5135736;27;20011;-73
2022/11/26 04:36:29;;;;;;;15.80;2.03;;;;;;;3.54;91.85;101920.50;5135319;27;20041;-73
2022/11/26 04:39:32;;;;;;;9.20;1.98;;;;;;;3.56;90.72;101923.94;5134677;27;20042;-72
2022/11/26 04:42:35;;;;;;;5.07;1.55;;;;;;;3.67;89.47;101929.97;5135874;27;20061;-72
2022/11/26 04:45:39;;;;;;;23.45;1.90;;;;;;;3.85;88.32;101931.66;5135493;27;20046;-73
2022/11/26 04:48:42;;;;;;;9.75;1.48;;;;;;;3.87;88.94;101938.56;5135400;27;20042;-72
2022/11/26 04:51:56;;;;;;;7.35;2.10;;;;;;;4.02;88.64;101948.03;5134952;27;20454;-72
2022/11/26 04:55:39;;;;;;;24.08;2.78;;;;;;;3.77;89.39;101954.13;5135330;27;20082;-73
2022/11/26 04:58:44;;;;;;;13.63;2.65;;;;;;;3.81;89.13;101967.03;5135580;27;20104;-73
2022/11/26 05:01:47;;;;;;;;;;;;;;;3.82;88.60;101958.41;5122854;27;20087;-73
2022/11/26 05:04:50;;;;;;;8.27;2.00;;;;;;;3.88;88.48;101967.88;5101901;28;19919;-73
2022/11/26 05:08:00;;;;;;;12.93;2.08;;;;;;;3.80;89.19;101973.09;5114554;28;20070;-73
2022/11/26 05:11:04;;;;;;;9.85;2.00;;;;;;;3.66;89.70;101986.00;5114595;28;20187;-73
2022/11/26 05:14:11;;;;;;;8.77;2.03;;;;;;;3.91;88.91;101994.63;5114109;28;20055;-75
2022/11/26 05:17:14;;;;;;;11.30;1.55;;;;;;;3.71;88.72;101992.06;5101827;28;20097;-75
2022/11/26 05:20:18;;;;;;;5.53;1.80;;;;;;;3.78;88.30;101992.06;5113311;28;20115;-72
2022/11/26 05:23:21;;;;;;;5.47;1.33;;;;;;;3.75;88.42;101998.09;5114291;28;20176;-73
2022/11/26 05:26:24;;;;;;;13.07;2.17;;;;;;;3.85;88.33;101989.44;5113940;28;20042;-73
2022/11/26 05:30:00;;;;;;;;;;;;;;;3.75;88.05;101992.91;5114400;28;20080;-73
2022/11/26 05:33:33;;;;;;;16.95;1.38;;;;;;;3.74;86.86;101996.38;5114028;28;20037;-73
2022/11/26 05:36:38;;;;;;;;;;;;;;;3.61;87.31;102005.00;5114450;28;20042;-72
2022/11/26 05:39:42;;;;;;;9.55;1.83;;;;;;;3.63;87.61;102003.25;5113770;28;19918;-72
2022/11/26 05:42:46;;;;;;;20.38;1.73;;;;;;;3.67;87.04;102010.16;5113901;28;20070;-72
2022/11/26 05:45:49;;;;;;;7.30;1.52;;;;;;;3.78;86.53;102012.75;5113676;28;20115;-72
2022/11/26 05:48:52;;;;;;;6.93;1.75;;;;;;;3.63;86.00;102014.47;5113965;28;20043;-72
2022/11/26 05:51:56;;;;;;;16.88;2.25;;;;;;;3.58;85.70;102023.97;5112432;28;20050;-72
2022/11/26 05:54:59;;;;;;;;;;;;;;;3.57;86.66;102031.72;5114146;28;20050;-72
2022/11/26 05:58:03;;;;;;;5.47;1.42;;;;;;;3.39;87.32;102046.34;5118270;27;19979;-72
2022/11/26 06:01:09;;;;;;;8.35;1.85;;;;;;;3.45;87.54;102038.59;5133768;27;20050;-72
2022/11/26 06:04:13;;;;;;;25.42;1.85;;;;;;;3.49;86.53;102048.09;5133536;27;20046;-72
2022/11/26 06:07:16;;;;;;;;;;;;;;;3.63;86.25;102040.34;5134424;27;20503;-72
2022/11/26 06:10:20;;;;;;;19.00;10.90;;;;;;;3.63;86.71;102039.47;5133805;27;19956;-72
2022/11/26 06:13:23;;;;;;;13.30;5.15;;;;;;;3.54;86.15;102034.28;5129973;27;20081;-75
2022/11/26 06:16:28;;;;;;;;;;;;;;;3.45;85.68;102038.59;4766561;27;9999851;-75
2022/11/26 06:19:31;;;;;;;13.88;1.92;;;;;;;3.43;84.97;102040.31;5097258;28;19918;-76
2022/11/26 06:26:59;;;;;;;8.57;2.70;;;;;;;3.32;85.24;102044.63;5107858;28;20568;-74
2022/11/26 06:30:05;;;;;;;5.82;2.75;;;;;;;3.46;84.60;102055.84;5123904;27;20466;-73
2022/11/26 06:33:08;;;;;;;7.07;3.35;;;;;;;3.24;85.85;102054.06;5129086;27;20042;-74
2022/11/26 06:36:11;;;;;;;;;;;;;;;3.24;85.41;102061.81;5130227;27;20090;-73
2022/11/26 06:39:22;;;;;;;39.38;2.92;;;;;;;3.25;85.99;102069.59;5128883;27;19922;-75
2022/11/26 06:42:31;;;;;;;10.45;4.28;;;;;;;3.46;85.46;102073.94;5128800;27;20091;-74
2022/11/26 06:46:03;;;;;;;20.75;7.68;;;;;;;3.35;85.23;102079.94;5129495;27;20527;-74
2022/11/26 06:49:12;;;;;;;6.78;2.33;;;;;;;3.35;84.85;102085.09;5129013;27;20126;-74
2022/11/26 06:52:20;;;;;;;6.20;2.00;;;;;;;3.32;85.24;102080.81;5109172;28;20046;-73
2022/11/26 06:55:27;;;;;;;8.77;2.58;;;;;;;3.38;84.44;102086.00;5100745;27;20045;-74
2022/11/26 06:58:30;;;;;;;;;;;;;;;3.42;84.02;102097.22;5130438;27;20082;-74
2022/11/26 07:01:33;;;;;;;10.45;3.17;;;;;;;3.48;83.54;102105.00;5129724;27;19950;-74
2022/11/26 07:04:37;;;;;;;8.48;2.00;;;;;;;3.34;83.82;102110.09;5129018;27;20074;-73
2022/11/26 07:07:40;;;;;;;8.25;2.17;;;;;;;3.40;82.85;102122.19;5129275;27;20088;-73
2022/11/26 07:10:44;;;;;;;6.15;1.70;;;;;;;3.33;82.98;102120.47;5129009;27;20403;-74
2022/11/26 07:13:47;;;;;;;4.75;1.50;;;;;;;3.44;82.65;102113.56;5128657;27;20131;-75
2022/11/26 07:16:50;;;;;;;7.75;2.08;;;;;;;3.36;83.26;102123.06;5129832;27;20089;-74
2022/11/26 07:19:54;;;;;;;;;;;;;;;3.40;82.84;102125.63;5112132;28;20095;-74
2022/11/26 07:22:57;;;;;;;5.10;2.22;;;;;;;3.34;83.04;102141.13;5126900;28;19921;-74
2022/11/26 07:26:03;;;;;;;7.30;2.03;;;;;;;3.38;83.04;102139.41;5106605;28;20055;-76
2022/11/26 07:29:07;;;;;;;9.00;2.05;;;;;;;3.50;82.15;102136.88;5107201;28;20042;-74
2022/11/26 07:32:11;;;;;;;7.55;2.00;;;;;;;3.45;82.43;102144.63;5107329;28;20087;-74
2022/11/26 07:35:18;;;;;;;9.23;2.05;;;;;;;3.37;83.14;102141.16;5107421;28;20054;-74
2022/11/26 07:38:26;;;;;;;7.22;2.03;;;;;;;3.35;83.15;102139.41;5113205;28;20521;-74
2022/11/26 07:41:29;;;;;;;7.07;1.90;;;;;;;3.45;83.26;102134.28;5130053;28;20062;-75
2022/11/26 07:44:34;;;;;;;;;;;;;;;3.60;82.61;102130.00;5129399;28;20128;-74
2022/11/26 07:47:37;;;;;;;8.55;3.97;;;;;;;3.52;83.03;102137.75;5129930;28;20369;-74
2022/11/26 07:50:42;;;;;;;9.18;3.42;;;;;;;3.62;82.76;102134.31;5111272;28;20042;-74
2022/11/26 07:54:46;;;;;;;4.50;2.03;;;;;;;3.76;83.06;102136.06;5123027;28;20507;-74
2022/11/26 07:58:47;;;;;;;7.30;2.25;;;;;;;3.64;83.18;102134.34;5128006;28;20092;-75
2022/11/26 08:05:44;;;;;;;8.05;2.55;;;;;;;3.72;82.89;102137.78;5111038;28;20436;-75
2022/11/26 08:08:49;;;;;;;7.07;2.47;;;;;;;3.63;84.12;102143.78;5128409;28;20070;-74
2022/11/26 08:11:52;;;;;;;8.10;3.45;;;;;;;3.79;83.64;102149.88;5128596;28;20046;-74
2022/11/26 08:14:56;;;;;;;15.90;9.75;;;;;;;3.86;84.22;102154.22;5129163;27;20099;-74
2022/11/26 08:17:59;;;;;;;11.73;4.22;;;;;;;3.96;84.41;102163.72;5132512;27;20828;-74
2022/11/26 08:21:02;;;;;;;;;;;;;;;4.16;84.16;102170.63;5133547;27;20053;-74
2022/11/26 08:24:11;;;;;;;8.82;3.03;;;;;;;4.18;84.56;102176.69;5119716;27;19918;-73
2022/11/26 08:27:14;;;;;;;6.93;3.15;;;;;;;3.75;87.72;102189.53;5131113;27;20609;-74
2022/11/26 08:30:17;;;;;;;9.43;3.67;;;;;;;3.95;86.29;102177.50;5131433;27;20046;-74
2022/11/26 08:33:22;;;;;;;5.95;3.00;;;;;;;4.01;86.09;102179.25;5131472;27;20042;-74
2022/11/26 08:36:28;;;;;;;8.30;3.63;;;;;;;4.19;85.38;102181.00;5131271;27;20135;-75
2022/11/26 08:39:31;;;;;;;6.88;3.00;;;;;;;4.33;85.17;102194.78;5118715;27;20042;-74
2022/11/26 08:42:34;;;;;;;6.00;2.40;;;;;;;4.41;84.82;102190.50;5132197;27;20037;-74
2022/11/26 08:45:38;;;;;;;9.15;2.70;;;;;;;4.46;85.08;102190.47;5132264;27;20046;-74
2022/11/26 08:48:41;;;;;;;9.93;4.13;;;;;;;4.25;85.49;102191.34;5132400;27;20103;-75
2022/11/26 08:51:44;;;;;;;16.02;8.23;;;;;;;4.50;85.57;102191.34;5130580;27;20100;-75
2022/11/26 08:54:47;;;;;;;8.50;3.97;;;;;;;4.61;86.55;102185.28;5131937;27;20050;-74
2022/11/26 08:57:51;;;;;;;;;;;;;;;4.66;86.86;102186.16;5131995;27;20456;-74
2022/11/26 09:00:55;;;;;;;5.32;2.13;;;;;;;4.56;87.72;102191.34;5131830;27;20374;-74
2022/11/26 09:04:00;;;;;;;8.00;2.90;;;;;;;4.63;87.43;102182.72;5132211;27;20038;-75
2022/11/26 09:07:03;;;;;;;9.45;4.68;;;;;;;4.73;86.66;102188.75;5131910;27;20105;-75
2022/11/26 09:10:07;;;;;;;10.05;2.80;;;;;;;4.77;87.22;102191.31;5131574;27;20042;-75
2022/11/26 09:13:12;;;;;;;12.93;3.78;;;;;;;4.94;86.63;102193.00;5130084;27;20091;-75
2022/11/26 09:16:15;;;;;;;12.85;7.93;;;;;;;4.94;87.28;102193.00;5130148;27;20046;-75
2022/11/26 09:19:18;;;;;;;12.27;6.00;;;;;;;5.12;86.49;102192.97;5130886;27;20244;-75
2022/11/26 09:22:22;;;;;;;8.15;4.35;;;;;;;5.11;87.49;102186.06;5111188;28;20050;-75
2022/11/26 09:25:25;;;;;;;;;;;;;;;5.19;87.26;102186.03;5111423;28;20041;-76
2022/11/26 09:28:28;;;;;;;10.90;5.90;;;;;;;5.26;87.38;102187.72;5119874;27;20129;-76
2022/11/26 09:31:33;;;;;;;8.55;2.90;;;;;;;5.45;87.60;102183.34;5128937;27;20034;-76
2022/11/26 09:34:39;;;;;;;5.40;2.58;;;;;;;5.49;87.23;102180.72;5128217;27;20404;-78
2022/11/26 09:37:42;;;;;;;9.43;3.70;;;;;;;5.52;87.51;102180.72;5128142;27;20065;-74
2022/11/26 09:40:48;;;;;;;;;;;;;;;5.67;88.50;102179.75;5108703;28;20078;-75
2022/11/26 09:43:58;;;;;;;9.68;4.47;;;;;;;5.65;88.72;102181.53;5109309;28;19988;-76
2022/11/26 09:47:21;;;;;;;9.25;4.00;;;;;;;5.69;89.60;102188.41;5109700;28;20447;-76
2022/11/26 09:50:34;;;;;;;15.18;8.68;;;;;;;5.62;89.78;102183.28;5130210;27;20193;-75
2022/11/26 09:53:43;;;;;;;13.50;9.02;;;;;;;5.77;91.27;102178.81;5127680;27;20622;-77
2022/11/26 09:56:58;;;;;;;9.48;4.50;;;;;;;5.32;92.25;102182.53;5126640;27;20748;-77
2022/11/26 10:00:03;;;;;;;9.32;5.10;;;;;;;5.64;91.55;102182.38;5126477;27;20412;-78
2022/11/26 10:03:13;;;;;;;8.23;5.85;;;;;;;5.83;91.08;102183.13;5126466;27;20581;-77
2022/11/26 10:06:29;;;;;;;14.38;8.30;;;;;;;5.91;90.81;102186.56;5125869;27;20070;-76
2022/11/26 10:09:38;;;;;;;12.43;6.47;;;;;;;6.07;91.17;102195.13;5126652;27;20042;-77
2022/11/26 10:12:59;;;;;;;7.65;4.50;;;;;;;6.21;91.42;102190.69;5128376;27;20126;-77
2022/11/26 10:16:30;;;;;;;10.30;3.63;;;;;;;6.26;88.63;102185.47;5128446;27;20111;-76
2022/11/26 10:19:49;;;;;;;15.43;4.35;;;;;;;6.40;88.04;102177.56;5127008;27;20050;-77
2022/11/26 10:22:58;;;;;;;12.15;3.35;;;;;;;6.36;87.17;102179.31;5125113;27;20122;-77
2022/11/26 10:26:12;;;;;;;8.80;2.92;;;;;;;6.27;87.48;102188.06;5127796;27;20038;-77
2022/11/26 10:29:25;;;;;;;10.25;3.03;;;;;;;6.36;87.36;102191.47;5127256;27;20172;-78
2022/11/26 10:32:54;;;;;;;10.07;2.80;;;;;;;6.50;86.69;102192.19;5126811;27;20797;-77
2022/11/26 10:35:58;;;;;;;12.95;2.95;;;;;;;6.58;86.17;102189.53;5127194;27;20062;-78
2022/11/26 10:39:02;;;;;;;;;;;;;;;6.59;86.05;102188.66;5124619;27;20037;-77
2022/11/26 10:42:16;;;;;;;10.98;3.30;;;;;;;6.77;86.08;102175.50;5126676;27;19926;-75
2022/11/26 10:45:22;;;;;;;10.98;3.13;;;;;;;6.92;85.60;102174.44;5123630;27;20045;-75
2022/11/26 10:48:29;;;;;;;11.85;3.63;;;;;;;7.09;85.04;102171.69;5124255;27;20087;-77
2022/11/26 10:51:36;;;;;;;11.38;4.45;;;;;;;6.93;86.14;102171.00;5123205;27;20084;-77
2022/11/26 10:54:40;;;;;;;12.82;3.78;;;;;;;7.16;86.13;102162.94;5125149;27;20050;-76
2022/11/26 10:57:48;;;;;;;;;;;;;;;7.15;85.05;102156.88;5126855;27;20049;-77
2022/11/26 11:01:00;;;;;;;16.58;5.60;;;;;;;7.06;85.50;102151.78;5120729;27;19960;-77
2022/11/26 11:04:17;;;;;;;8.93;2.75;;;;;;;6.88;85.31;102158.03;5127183;27;20075;-76
2022/11/26 11:07:31;;;;;;;13.30;3.22;;;;;;;6.85;85.92;102162.41;5127807;27;20408;-77
2022/11/26 11:10:51;;;;;;;11.38;3.90;;;;;;;7.07;85.44;102161.28;5127044;27;20054;-78
2022/11/26 11:13:55;;;;;;;9.77;2.42;;;;;;;7.03;84.33;102157.00;5126949;27;20091;-77
2022/11/26 11:17:00;;;;;;;12.02;3.72;;;;;;;7.09;84.01;102151.72;5127588;27;20568;-76
2022/11/26 11:20:15;;;;;;;12.85;4.68;;;;;;;7.22;83.81;102157.66;5125545;28;20038;-77
2022/11/26 11:23:22;;;;;;;11.93;2.95;;;;;;;7.16;83.67;102158.56;5127548;28;20256;-77
2022/11/26 11:26:27;;;;;;;10.70;3.20;;;;;;;7.29;84.49;102158.44;5125537;28;20056;-77
2022/11/26 11:29:35;;;;;;;8.73;2.67;;;;;;;7.23;82.80;102155.00;5125546;28;20038;-78
2022/11/26 11:32:39;;;;;;;7.78;2.70;;;;;;;7.12;83.58;102158.66;5128160;28;20396;-78
2022/11/26 11:35:42;;;;;;;11.55;4.00;;;;;;;7.16;84.11;102166.38;5124396;28;20087;-77
2022/11/26 11:38:51;;;;;;;10.05;3.00;;;;;;;7.13;84.21;102160.34;5125564;28;20479;-78
2022/11/26 11:41:56;;;;;;;10.68;2.60;;;;;;;7.17;82.97;102155.09;5126823;28;20046;-76
2022/11/26 11:45:00;;;;;;;11.38;2.70;;;;;;;7.21;83.31;102159.41;5127589;28;20505;-75
2022/11/26 11:48:22;;;;;;;9.50;2.88;;;;;;;7.13;82.37;102153.41;5125484;28;20364;-77
2022/11/26 11:51:32;;;;;;;9.33;2.77;;;;;;;7.24;82.30;102150.66;5129560;27;20038;-75
2022/11/26 11:54:55;;;;;;;9.57;2.53;;;;;;;7.33;81.42;102152.31;5125834;27;20073;-73
2022/11/26 11:58:34;;;;;;;11.93;3.70;;;;;;;7.46;80.78;102151.25;5120311;27;20042;-72
2022/11/26 12:01:37;;;;;;;8.52;2.22;;;;;;;7.45;80.92;102149.53;5130085;27;20435;-73
2022/11/26 12:04:50;;;;;;;11.40;2.15;;;;;;;7.50;80.92;102160.78;5128900;27;20471;-73
2022/11/26 12:08:26;;;;;;;10.23;2.65;;;;;;;7.56;80.98;102162.41;5128086;27;20042;-74
2022/11/26 12:11:52;;;;;;;10.02;2.38;;;;;;;7.62;80.57;102162.31;5129262;27;20081;-73
2022/11/26 12:19:32;;;;;;;11.95;3.17;;;;;;;7.56;79.82;102159.81;5128975;27;20454;-73
2022/11/26 12:22:45;;;;;;;11.88;2.90;;;;;;;7.67;79.92;102148.38;5129324;27;20065;-72
2022/11/26 12:26:24;;;;;;;12.65;2.88;;;;;;;7.55;80.83;102148.53;5129537;27;20428;-73
2022/11/26 12:29:41;;;;;;;15.02;2.88;;;;;;;7.56;80.43;102152.88;5092276;27;20568;-72
2022/11/26 12:32:53;;;;;;;14.63;3.35;;;;;;;7.45;81.15;102158.22;5116936;27;20034;-73
2022/11/26 12:36:09;;;;;;;15.15;3.60;;;;;;;7.50;80.50;102142.56;5127654;27;20419;-73
2022/11/26 12:39:22;;;;;;;8.88;3.28;;;;;;;7.58;80.59;102147.63;5129118;27;20042;-72
2022/11/26 12:43:21;;;;;;;16.80;7.97;;;;;;;7.56;81.35;102139.88;5128935;27;20497;-73
2022/11/26 12:47:09;;;;;;;10.52;3.40;;;;;;;7.45;81.04;102144.34;5016929;28;20049;-73
2022/11/26 12:55:13;;;;;;;19.45;3.30;;;;;;;7.30;81.39;102145.38;5126453;27;21421;-74
2022/11/26 12:58:46;;;;;;;17.58;8.98;;;;;;;7.52;81.81;102151.19;5115114;27;20092;-74
2022/11/26 13:02:07;;;;;;;15.48;6.10;;;;;;;7.39;80.09;102140.06;5113169;27;20407;-74
2022/11/26 13:05:38;;;;;;;25.30;17.30;;;;;;;7.49;80.37;102134.75;5131111;27;20453;-74
2022/11/26 13:09:05;;;;;;;15.27;7.43;;;;;;;7.70;79.57;102139.66;5103701;27;20093;-74
2022/11/26 13:12:37;;;;;;;16.58;6.80;;;;;;;7.53;79.17;102137.31;5114736;27;20077;-74
2022/11/26 13:15:59;;;;;;;13.75;4.38;;;;;;;7.56;78.33;102137.25;5129826;27;20312;-74
2022/11/26 13:19:17;;;;;;;11.05;3.78;;;;;;;7.56;77.77;102129.44;5129163;27;20084;-75
2022/11/26 13:22:50;;;;;;;10.25;2.50;;;;;;;7.57;78.07;102128.56;5116924;27;20030;-74
2022/11/26 13:26:31;;;;;;;9.70;2.20;;;;;;;7.54;77.82;102131.22;5130024;27;20067;-75
2022/11/26 13:29:38;;;;;;;15.75;7.45;;;;;;;7.51;78.03;102133.00;5128202;27;20112;-74
2022/11/26 13:33:02;;;;;;;12.32;3.50;;;;;;;7.45;77.64;102129.59;5117590;27;20039;-74
2022/11/26 13:36:24;;;;;;;20.23;10.60;;;;;;;7.42;78.45;102136.56;5123494;27;20039;-73
2022/11/26 13:39:33;;;;;;;218.82;141.63;;;;;;;7.32;78.60;102133.22;5129086;27;20088;-74
2022/11/26 13:43:14;;;;;;;23.33;12.00;;;;;;;7.37;77.99;102136.66;5110337;27;20089;-75
2022/11/26 13:46:28;;;;;;;82.50;56.47;;;;;;;7.30;78.02;102141.94;5107010;27;20046;-74
2022/11/26 13:49:47;;;;;;;50.83;29.08;;;;;;;7.30;78.01;102134.13;5128486;27;20096;-75
2022/11/26 13:53:01;;;;;;;144.93;96.32;;;;;;;7.30;78.62;102140.19;5128938;27;20183;-75
2022/11/26 13:56:07;;;;;;;40.97;23.40;;;;;;;7.31;77.72;102138.47;5124806;27;20038;-74
2022/11/26 13:59:22;;;;;;;44.28;24.92;;;;;;;7.29;77.42;102142.81;5127745;27;20601;-75
2022/11/26 14:02:32;;;;;;;37.90;20.65;;;;;;;7.31;77.34;102152.34;5124501;27;20131;-74
2022/11/26 14:05:48;;;;;;;14.13;6.80;;;;;;;7.35;77.61;102147.94;5123498;27;20145;-75
2022/11/26 14:08:53;;;;;;;10.13;3.05;;;;;;;7.28;76.88;102143.72;5127063;27;20159;-76
2022/11/26 14:11:56;;;;;;;6.50;2.17;;;;;;;7.25;77.30;102142.00;5130010;27;20523;-76
2022/11/26 14:15:00;;;;;;;15.88;9.77;;;;;;;7.46;77.16;102151.25;5131163;27;20132;-74
2022/11/26 14:18:03;;;;;;;18.77;10.52;;;;;;;7.44;76.55;102148.69;5125780;27;20037;-74
2022/11/26 14:21:06;;;;;;;9.25;3.47;;;;;;;7.33;77.01;102144.50;5130254;27;20034;-74
2022/11/26 14:24:09;;;;;;;13.18;5.18;;;;;;;7.51;77.13;102133.84;5130480;27;20499;-75
2022/11/26 14:27:13;;;;;;;;;;;;;;;7.60;78.82;102141.53;5131465;27;20045;-74
2022/11/26 14:30:21;;;;;;;38.88;16.10;;;;;;;7.77;77.18;102135.22;5131200;27;19918;-76
2022/11/26 14:33:28;;;;;;;15.13;5.72;;;;;;;7.83;75.47;102124.72;5130274;27;20085;-75
2022/11/26 14:36:36;;;;;;;11.73;3.03;;;;;;;7.96;75.85;102121.03;5131154;27;20108;-74
2022/11/26 14:40:21;;;;;;;10.82;3.90;;;;;;;8.08;76.04;102114.78;5132639;27;20046;-75
2022/11/26 14:44:14;;;;;;;9.50;2.67;;;;;;;8.01;77.13;102116.63;5132884;27;20053;-74
2022/11/26 14:47:20;;;;;;;9.20;3.03;;;;;;;7.95;77.46;102119.31;5131383;27;20046;-75
2022/11/26 14:50:25;;;;;;;27.02;10.00;;;;;;;7.93;76.70;102110.66;5132464;27;20504;-75
2022/11/26 14:54:19;;;;;;;20.55;8.45;;;;;;;7.85;77.08;102108.19;5131164;27;20512;-74
2022/11/26 14:58:29;;;;;;;22.05;11.50;;;;;;;7.83;77.87;102104.72;5132922;27;20050;-74
2022/11/26 15:01:33;;;;;;;31.48;11.40;;;;;;;7.75;80.01;102110.94;5130081;27;20038;-74
2022/11/26 15:04:37;;;;;;;21.50;8.00;;;;;;;7.76;80.51;102115.28;5132562;27;20042;-75
2022/11/26 15:07:40;;;;;;;13.25;4.43;;;;;;;7.78;80.87;102111.75;5131628;27;20103;-75
2022/11/26 15:11:06;;;;;;;9.93;2.53;;;;;;;7.76;81.67;102102.25;5131730;27;20469;-74
2022/11/26 15:14:25;;;;;;;10.82;1.95;;;;;;;7.68;82.25;102105.81;5131922;27;20054;-74
2022/11/26 15:17:31;;;;;;;6.97;1.67;;;;;;;7.54;82.67;102106.94;5132576;27;20050;-74